Terminal Aerodrome Forecast
Issued by NWS

Home | Current Version | Previous Version | Text Only | Print | Product List | Glossary On
Versions: 1 2 3 4 5 6 7 8 9 10 11 12 13 14 15 16 17 18 19 20 21 22
511
FTUS41 KCAR 301858 AAA
TAFBHB
TAF AMD
KBHB 301858Z 3019/3118 21008KT P6SM SCT010
     FM310200 22007KT 1SM BR BKN005
     FM311200 26005KT P6SM SCT003=

USA.gov is the U.S. government's official web portal to all federal, state and local government web resources and services.